sensor_id;sensor_type;location;lat;lon;timestamp;P1;durP1;ratioP1;P2;durP2;ratioP2
7883;SDS011;3987;51.458;7.238;2023-03-17T00:13:45;2.67;;;2.57;;
7883;SDS011;3987;51.458;7.238;2023-03-17T00:28:45;2.20;;;2.07;;
7883;SDS011;3987;51.458;7.238;2023-03-17T00:43:47;2.33;;;2.33;;
7883;SDS011;3987;51.458;7.238;2023-03-17T00:58:47;2.00;;;1.90;;
7883;SDS011;3987;51.458;7.238;2023-03-17T01:13:49;2.27;;;2.17;;
7883;SDS011;3987;51.458;7.238;2023-03-17T01:28:49;2.00;;;2.00;;
7883;SDS011;3987;51.458;7.238;2023-03-17T01:43:50;2.20;;;2.20;;
7883;SDS011;3987;51.458;7.238;2023-03-17T01:58:51;2.20;;;2.20;;
7883;SDS011;3987;51.458;7.238;2023-03-17T02:13:53;2.43;;;2.23;;
7883;SDS011;3987;51.458;7.238;2023-03-17T02:28:54;2.20;;;2.07;;
7883;SDS011;3987;51.458;7.238;2023-03-17T02:43:55;2.37;;;2.37;;
7883;SDS011;3987;51.458;7.238;2023-03-17T02:58:56;2.30;;;2.20;;
7883;SDS011;3987;51.458;7.238;2023-03-17T03:13:56;2.30;;;2.30;;
7883;SDS011;3987;51.458;7.238;2023-03-17T03:28:57;2.43;;;2.33;;
7883;SDS011;3987;51.458;7.238;2023-03-17T03:43:59;2.73;;;2.73;;
7883;SDS011;3987;51.458;7.238;2023-03-17T03:58:59;2.30;;;2.30;;
7883;SDS011;3987;51.458;7.238;2023-03-17T04:14:00;2.23;;;2.13;;
7883;SDS011;3987;51.458;7.238;2023-03-17T04:29:00;2.23;;;2.23;;
7883;SDS011;3987;51.458;7.238;2023-03-17T04:44:01;1.90;;;1.90;;
7883;SDS011;3987;51.458;7.238;2023-03-17T04:59:01;2.40;;;2.33;;
7883;SDS011;3987;51.458;7.238;2023-03-17T05:14:02;2.63;;;2.60;;
7883;SDS011;3987;51.458;7.238;2023-03-17T05:29:02;2.27;;;2.17;;
7883;SDS011;3987;51.458;7.238;2023-03-17T05:44:03;2.20;;;2.10;;
7883;SDS011;3987;51.458;7.238;2023-03-17T05:59:03;2.73;;;2.63;;
7883;SDS011;3987;51.458;7.238;2023-03-17T06:14:04;3.40;;;3.10;;
7883;SDS011;3987;51.458;7.238;2023-03-17T06:29:05;2.97;;;2.70;;
7883;SDS011;3987;51.458;7.238;2023-03-17T06:44:08;4.00;;;2.33;;
7883;SDS011;3987;51.458;7.238;2023-03-17T06:59:09;2.50;;;2.40;;
7883;SDS011;3987;51.458;7.238;2023-03-17T07:14:10;2.30;;;2.30;;
7883;SDS011;3987;51.458;7.238;2023-03-17T07:29:10;2.37;;;2.37;;
7883;SDS011;3987;51.458;7.238;2023-03-17T07:44:11;2.10;;;2.00;;
7883;SDS011;3987;51.458;7.238;2023-03-17T07:59:11;2.53;;;2.43;;
7883;SDS011;3987;51.458;7.238;2023-03-17T08:14:12;2.10;;;1.83;;
7883;SDS011;3987;51.458;7.238;2023-03-17T08:29:12;2.53;;;2.10;;
7883;SDS011;3987;51.458;7.238;2023-03-17T08:44:12;1.83;;;1.80;;
7883;SDS011;3987;51.458;7.238;2023-03-17T08:59:13;2.60;;;2.50;;
7883;SDS011;3987;51.458;7.238;2023-03-17T09:14:14;1.97;;;1.93;;
7883;SDS011;3987;51.458;7.238;2023-03-17T09:29:14;2.03;;;2.00;;
7883;SDS011;3987;51.458;7.238;2023-03-17T09:59:58;2.10;;;2.00;;
7883;SDS011;3987;51.458;7.238;2023-03-17T10:15:04;2.00;;;2.00;;
7883;SDS011;3987;51.458;7.238;2023-03-17T10:30:18;2.23;;;2.13;;
7883;SDS011;3987;51.458;7.238;2023-03-17T10:45:21;2.40;;;2.20;;
7883;SDS011;3987;51.458;7.238;2023-03-17T11:00:27;1.90;;;1.80;;
7883;SDS011;3987;51.458;7.238;2023-03-17T11:16:03;2.63;;;2.10;;
7883;SDS011;3987;51.458;7.238;2023-03-17T11:31:37;1.90;;;1.90;;
7883;SDS011;3987;51.458;7.238;2023-03-17T11:47:09;1.93;;;1.70;;
7883;SDS011;3987;51.458;7.238;2023-03-17T12:02:26;1.90;;;1.77;;
7883;SDS011;3987;51.458;7.238;2023-03-17T12:17:36;2.30;;;1.70;;
7883;SDS011;3987;51.458;7.238;2023-03-17T12:32:43;4.60;;;1.30;;
7883;SDS011;3987;51.458;7.238;2023-03-17T13:03:11;2.40;;;1.47;;
7883;SDS011;3987;51.458;7.238;2023-03-17T13:33:33;2.60;;;1.63;;
7883;SDS011;3987;51.458;7.238;2023-03-17T13:48:34;3.27;;;1.60;;
7883;SDS011;3987;51.458;7.238;2023-03-17T14:03:44;2.77;;;1.53;;
7883;SDS011;3987;51.458;7.238;2023-03-17T14:18:48;1.70;;;1.47;;
7883;SDS011;3987;51.458;7.238;2023-03-17T14:33:53;1.80;;;1.70;;
7883;SDS011;3987;51.458;7.238;2023-03-17T14:49:02;1.87;;;1.83;;
7883;SDS011;3987;51.458;7.238;2023-03-17T15:19:19;1.60;;;1.50;;
7883;SDS011;3987;51.458;7.238;2023-03-17T15:34:24;1.10;;;1.10;;
7883;SDS011;3987;51.458;7.238;2023-03-17T15:49:24;2.80;;;1.40;;
7883;SDS011;3987;51.458;7.238;2023-03-17T16:04:24;1.63;;;1.53;;
7883;SDS011;3987;51.458;7.238;2023-03-17T16:19:25;2.80;;;1.53;;
7883;SDS011;3987;51.458;7.238;2023-03-17T16:34:26;1.70;;;1.53;;
7883;SDS011;3987;51.458;7.238;2023-03-17T16:49:27;2.03;;;1.93;;
7883;SDS011;3987;51.458;7.238;2023-03-17T17:04:28;7.73;;;2.13;;
7883;SDS011;3987;51.458;7.238;2023-03-17T17:19:30;2.07;;;1.87;;
7883;SDS011;3987;51.458;7.238;2023-03-17T17:34:30;2.13;;;1.63;;
7883;SDS011;3987;51.458;7.238;2023-03-17T17:49:30;1.77;;;1.77;;
7883;SDS011;3987;51.458;7.238;2023-03-17T18:04:31;2.20;;;1.60;;
7883;SDS011;3987;51.458;7.238;2023-03-17T18:19:31;1.73;;;1.63;;
7883;SDS011;3987;51.458;7.238;2023-03-17T18:34:33;1.80;;;1.80;;
7883;SDS011;3987;51.458;7.238;2023-03-17T18:49:39;1.90;;;1.80;;
7883;SDS011;3987;51.458;7.238;2023-03-17T19:04:39;2.40;;;1.83;;
7883;SDS011;3987;51.458;7.238;2023-03-17T19:19:45;2.13;;;1.90;;
7883;SDS011;3987;51.458;7.238;2023-03-17T19:34:45;3.67;;;1.87;;
7883;SDS011;3987;51.458;7.238;2023-03-17T19:49:46;3.93;;;2.20;;
7883;SDS011;3987;51.458;7.238;2023-03-17T20:04:47;2.07;;;1.90;;
7883;SDS011;3987;51.458;7.238;2023-03-17T20:19:47;2.23;;;2.00;;
7883;SDS011;3987;51.458;7.238;2023-03-17T20:34:48;2.07;;;1.60;;
7883;SDS011;3987;51.458;7.238;2023-03-17T20:49:48;1.80;;;1.60;;
7883;SDS011;3987;51.458;7.238;2023-03-17T21:04:49;1.73;;;1.63;;
7883;SDS011;3987;51.458;7.238;2023-03-17T21:19:50;1.93;;;1.83;;
7883;SDS011;3987;51.458;7.238;2023-03-17T21:34:50;3.53;;;2.03;;
7883;SDS011;3987;51.458;7.238;2023-03-17T21:49:53;2.23;;;2.10;;
7883;SDS011;3987;51.458;7.238;2023-03-17T22:04:53;3.13;;;2.40;;
7883;SDS011;3987;51.458;7.238;2023-03-17T22:19:54;2.40;;;2.20;;
7883;SDS011;3987;51.458;7.238;2023-03-17T22:34:54;1.93;;;1.80;;
7883;SDS011;3987;51.458;7.238;2023-03-17T22:49:54;3.67;;;2.50;;
7883;SDS011;3987;51.458;7.238;2023-03-17T23:04:55;3.80;;;2.50;;
7883;SDS011;3987;51.458;7.238;2023-03-17T23:19:55;2.80;;;2.70;;
7883;SDS011;3987;51.458;7.238;2023-03-17T23:34:56;2.70;;;2.50;;
7883;SDS011;3987;51.458;7.238;2023-03-17T23:49:56;2.80;;;2.30;;
